Time;durP1;ratioP1;P1;durP2;ratioP2;P2;SDS_P1;SDS_P2;PMS_P1;PMS_P2;Temp;Humidity;BMP_temperature;BMP_pressure;BME280_temperature;BME280_humidity;BME280_pressure;Samples;Min_cycle;Max_cycle;Signal;HPM_P1;HPM_P2
2022/05/22 00:00:52;;;;;;;6.93;3.17;;;;;;;13.84;100.00;101849.94;5265843;28;20097;-69
2022/05/22 00:03:24;;;;;;;6.55;3.50;;;;;;;13.84;100.00;101844.66;5268261;28;20040;-69
2022/05/22 00:05:55;;;;;;;6.00;3.15;;;;;;;13.82;100.00;101841.31;5267046;28;20462;-69
2022/05/22 00:08:26;;;;;;;8.23;3.35;;;;;;;13.76;100.00;101836.56;5267103;28;20029;-68
2022/05/22 00:10:57;;;;;;;5.38;2.90;;;;;;;13.84;100.00;101839.41;5267142;28;20020;-69
2022/05/22 00:13:29;;;;;;;7.18;2.92;;;;;;;13.79;100.00;101837.16;5267224;28;20048;-68
2022/05/22 00:18:50;;;;;;;5.35;2.85;;;;;;;13.86;100.00;101832.19;5267985;28;20041;-69
2022/05/22 00:21:21;;;;;;;8.30;3.38;;;;;;;13.87;100.00;101826.81;5268927;28;20024;-69
2022/05/22 00:23:52;;;;;;;7.75;3.10;;;;;;;13.89;100.00;101826.66;5267497;28;20032;-69
2022/05/22 00:26:24;;;;;;;7.43;3.60;;;;;;;13.90;100.00;101828.34;5268219;28;20456;-69
2022/05/22 00:28:55;;;;;;;6.55;3.13;;;;;;;13.92;100.00;101825.59;5266205;28;20094;-69
2022/05/22 00:31:27;;;;;;;6.03;3.08;;;;;;;13.90;100.00;101822.22;5269005;28;20044;-69
2022/05/22 00:33:58;;;;;;;7.00;2.95;;;;;;;13.92;100.00;101812.41;5267654;28;20033;-69
2022/05/22 00:36:29;;;;;;;9.93;3.85;;;;;;;13.94;100.00;101819.25;5267510;28;20428;-69
2022/05/22 00:39:01;;;;;;;8.90;4.22;;;;;;;13.98;100.00;101817.16;5268667;28;20116;-69
2022/05/22 00:41:33;;;;;;;15.27;5.20;;;;;;;13.99;100.00;101821.47;5268188;28;20021;-69
2022/05/22 00:44:07;;;;;;;8.38;4.70;;;;;;;14.02;100.00;101808.06;5264572;28;20106;-69
2022/05/22 00:46:38;;;;;;;;;;;;;;;14.57;100.00;101808.63;5268818;28;20397;-69
2022/05/22 00:49:27;;;;;;;8.90;4.23;;;;;;;14.28;100.00;101804.06;5269106;28;19916;-69
2022/05/22 00:52:04;;;;;;;10.35;4.60;;;;;;;14.11;100.00;101799.38;5263143;28;20378;-69
2022/05/22 00:54:42;;;;;;;10.43;5.18;;;;;;;14.19;100.00;101806.63;5266798;28;20033;-69
2022/05/22 00:57:24;;;;;;;9.10;5.32;;;;;;;14.14;100.00;101811.47;5265889;28;20029;-69
2022/05/22 00:59:59;;;;;;;10.30;4.97;;;;;;;14.19;100.00;101796.91;5267406;28;20078;-69
2022/05/22 01:03:26;;;;;;;10.13;5.47;;;;;;;14.08;100.00;101796.97;5268056;28;20128;-68
2022/05/22 01:05:22;;;;;;;13.48;5.30;;;;;;;14.04;100.00;101800.84;5266139;28;20040;-68
2022/05/22 01:07:57;;;;;;;8.55;4.93;;;;;;;14.02;100.00;101798.34;5265185;28;20084;-68
2022/05/22 01:10:36;;;;;;;11.35;5.22;;;;;;;14.06;100.00;101799.75;5267897;28;20065;-68
2022/05/22 01:13:09;;;;;;;10.23;4.95;;;;;;;14.01;100.00;101798.47;5267710;28;20079;-69
2022/05/22 01:15:41;;;;;;;12.57;5.40;;;;;;;13.97;100.00;101811.06;5267596;28;20021;-68
2022/05/22 01:18:12;;;;;;;11.05;5.25;;;;;;;13.91;100.00;101816.03;5268249;28;20081;-68
2022/05/22 01:20:50;;;;;;;18.83;5.80;;;;;;;13.91;100.00;101811.59;5268877;28;20029;-68
2022/05/22 01:23:23;;;;;;;16.45;5.70;;;;;;;13.84;100.00;101807.78;5268288;28;20046;-68
2022/05/22 01:25:54;;;;;;;11.05;5.50;;;;;;;13.81;100.00;101802.78;5263219;28;20119;-68
2022/05/22 01:28:25;;;;;;;12.23;5.45;;;;;;;13.68;100.00;101788.97;5268480;28;20127;-68
2022/05/22 01:30:57;;;;;;;8.93;5.30;;;;;;;13.73;100.00;101792.88;5264703;28;20081;-68
2022/05/22 01:33:28;;;;;;;9.98;5.07;;;;;;;13.74;100.00;101786.63;5265608;28;20123;-68
2022/05/22 01:36:00;;;;;;;13.73;5.60;;;;;;;13.66;100.00;101790.88;5268775;28;20031;-68
2022/05/22 01:38:32;;;;;;;9.70;5.50;;;;;;;13.57;100.00;101782.78;5267803;28;20024;-68
2022/05/22 01:41:04;;;;;;;12.77;5.60;;;;;;;13.54;100.00;101779.56;5264116;28;20029;-68
2022/05/22 01:43:36;;;;;;;10.37;5.20;;;;;;;13.44;100.00;101763.69;5265212;28;20047;-68
2022/05/22 01:46:07;;;;;;;9.43;5.60;;;;;;;13.43;100.00;101769.91;5266233;28;20024;-68
2022/05/22 01:48:39;;;;;;;14.43;5.22;;;;;;;13.38;100.00;101772.91;5268780;28;20040;-68
2022/05/22 01:51:10;;;;;;;10.88;5.43;;;;;;;13.45;100.00;101767.13;5264693;28;20028;-68
2022/05/22 01:53:41;;;;;;;12.30;5.68;;;;;;;13.30;100.00;101766.63;5266237;28;20091;-68
2022/05/22 01:56:13;;;;;;;12.15;5.38;;;;;;;13.24;100.00;101769.75;5265550;28;20062;-68
2022/05/22 01:58:44;;;;;;;13.55;5.70;;;;;;;13.15;100.00;101774.75;5267404;28;20030;-68
2022/05/22 02:01:15;;;;;;;8.15;5.13;;;;;;;13.11;100.00;101783.88;5261067;28;20124;-68
2022/05/22 02:03:47;;;;;;;9.52;5.88;;;;;;;13.04;100.00;101773.97;5264673;28;20036;-69
2022/05/22 02:06:18;;;;;;;12.00;5.65;;;;;;;12.99;100.00;101766.41;5264992;28;20047;-68
2022/05/22 02:08:49;;;;;;;10.15;5.40;;;;;;;12.90;100.00;101768.00;5266354;28;20035;-68
2022/05/22 02:11:20;;;;;;;10.23;5.55;;;;;;;12.84;100.00;101768.50;5264615;28;20048;-68
2022/05/22 02:13:52;;;;;;;11.23;6.65;;;;;;;12.81;100.00;101766.13;5265868;28;20225;-68
2022/05/22 02:16:23;;;;;;;12.00;5.60;;;;;;;12.76;100.00;101764.78;5265635;28;20032;-68
2022/05/22 02:18:54;;;;;;;15.27;5.95;;;;;;;12.72;100.00;101763.38;5262905;28;20043;-68
2022/05/22 02:21:26;;;;;;;10.55;5.63;;;;;;;12.71;100.00;101756.44;5265736;28;20020;-68
2022/05/22 02:23:57;;;;;;;9.57;5.15;;;;;;;12.66;100.00;101749.75;5267281;28;20025;-68
2022/05/22 02:26:29;;;;;;;12.70;5.60;;;;;;;12.65;100.00;101748.09;5265442;28;20036;-68
2022/05/22 02:29:00;;;;;;;12.40;5.90;;;;;;;12.66;100.00;101748.94;5263896;28;20029;-68
2022/05/22 02:31:31;;;;;;;10.80;5.68;;;;;;;12.61;100.00;101740.53;5265949;28;20494;-69
2022/05/22 02:34:03;;;;;;;10.48;5.50;;;;;;;12.54;100.00;101731.47;5264877;28;20035;-68
2022/05/22 02:36:34;;;;;;;14.20;6.40;;;;;;;12.56;100.00;101732.19;5265859;28;20029;-68
2022/05/22 02:39:06;;;;;;;20.55;5.38;;;;;;;12.52;100.00;101721.09;5266226;28;20367;-68
2022/05/22 02:41:37;;;;;;;10.55;5.70;;;;;;;12.37;100.00;101707.38;5266335;28;20085;-68
2022/05/22 02:44:09;;;;;;;14.98;6.55;;;;;;;12.51;100.00;101723.84;5265795;28;20037;-68
2022/05/22 02:46:41;;;;;;;9.93;5.78;;;;;;;12.49;100.00;101716.06;5268352;28;20033;-68
2022/05/22 02:49:12;;;;;;;10.93;5.70;;;;;;;12.45;100.00;101719.06;5264706;28;20535;-68
2022/05/22 02:51:44;;;;;;;10.38;5.97;;;;;;;12.40;100.00;101719.44;5262041;28;20067;-68
2022/05/22 02:54:15;;;;;;;10.05;5.35;;;;;;;12.36;100.00;101718.00;5266980;28;20024;-68
2022/05/22 02:56:46;;;;;;;9.88;6.40;;;;;;;12.32;100.00;101720.03;5264846;28;20025;-68
2022/05/22 02:59:18;;;;;;;10.93;6.13;;;;;;;12.37;100.00;101725.75;5265449;28;20025;-68
2022/05/22 03:01:49;;;;;;;10.95;5.78;;;;;;;12.34;100.00;101728.63;5263531;28;20060;-68
2022/05/22 03:04:20;;;;;;;11.25;5.60;;;;;;;12.35;100.00;101730.31;5266757;28;20032;-68
2022/05/22 03:06:51;;;;;;;11.40;6.32;;;;;;;12.33;100.00;101726.97;5267418;28;20086;-68
2022/05/22 03:09:23;;;;;;;9.88;6.05;;;;;;;12.29;100.00;101722.91;5266653;28;20033;-67
2022/05/22 03:11:54;;;;;;;12.55;5.97;;;;;;;12.27;100.00;101716.91;5269694;28;20025;-68
2022/05/22 03:14:25;;;;;;;11.43;5.65;;;;;;;12.22;100.00;101708.56;5269235;28;20386;-68
2022/05/22 03:16:56;;;;;;;10.00;6.20;;;;;;;12.21;100.00;101711.31;5266120;28;20025;-68
2022/05/22 03:19:28;;;;;;;9.35;6.10;;;;;;;12.16;100.00;101709.91;5269129;28;20481;-68
2022/05/22 03:21:59;;;;;;;9.20;6.05;;;;;;;12.18;100.00;101712.38;5270852;28;20511;-67
2022/05/22 03:24:30;;;;;;;11.05;6.35;;;;;;;12.21;100.00;101706.06;5268761;28;20033;-68
2022/05/22 03:27:04;;;;;;;11.48;6.38;;;;;;;12.17;100.00;101706.31;5271452;28;20025;-68
2022/05/22 03:29:36;;;;;;;8.82;6.10;;;;;;;12.20;100.00;101694.72;5268871;28;20032;-68
2022/05/22 03:32:09;;;;;;;10.27;6.40;;;;;;;12.19;100.00;101698.28;5270764;28;20044;-68
2022/05/22 03:34:41;;;;;;;10.40;6.00;;;;;;;12.24;100.00;101696.16;5268727;28;20759;-67
2022/05/22 03:37:14;;;;;;;8.57;5.93;;;;;;;12.17;100.00;101690.53;5267869;28;20128;-68
2022/05/22 03:39:45;;;;;;;10.85;6.53;;;;;;;12.19;100.00;101690.41;5269407;28;20112;-68
2022/05/22 03:42:16;;;;;;;12.40;7.22;;;;;;;12.13;100.00;101690.91;5270186;28;20702;-68
2022/05/22 03:44:48;;;;;;;9.18;5.80;;;;;;;12.11;100.00;101683.13;5267577;28;20025;-68
2022/05/22 03:47:19;;;;;;;9.73;6.38;;;;;;;12.09;100.00;101682.44;5270046;28;20123;-68
2022/05/22 03:49:50;;;;;;;9.93;6.13;;;;;;;11.99;100.00;101681.47;5268009;28;20033;-68
2022/05/22 03:52:22;;;;;;;11.18;6.03;;;;;;;11.92;100.00;101688.13;5267566;28;20074;-68
2022/05/22 03:54:54;;;;;;;9.07;6.15;;;;;;;11.91;100.00;101682.06;5268019;28;20033;-68
2022/05/22 03:57:25;;;;;;;11.50;6.22;;;;;;;11.87;100.00;101679.78;5267259;28;20469;-68
2022/05/22 03:59:57;;;;;;;8.30;5.93;;;;;;;11.84;100.00;101682.63;5269853;28;20035;-68
2022/05/22 04:02:28;;;;;;;9.80;5.55;;;;;;;11.76;100.00;101687.63;5264587;28;20130;-68
2022/05/22 04:05:00;;;;;;;8.23;5.85;;;;;;;11.71;100.00;101695.84;5265351;28;20560;-68
2022/05/22 04:07:36;;;;;;;10.85;6.18;;;;;;;11.74;100.00;101687.72;5266466;28;20033;-68
2022/05/22 04:10:09;;;;;;;9.23;5.43;;;;;;;11.67;100.00;101686.53;5266487;28;20035;-68
2022/05/22 04:12:44;;;;;;;8.47;5.70;;;;;;;11.67;100.00;101692.63;5264837;28;20393;-68
2022/05/22 04:15:19;;;;;;;9.27;5.95;;;;;;;11.72;100.00;101688.81;5268459;28;20496;-68
2022/05/22 04:17:50;;;;;;;7.70;6.43;;;;;;;11.69;100.00;101685.44;5267354;28;20033;-68
2022/05/22 04:20:21;;;;;;;9.73;5.95;;;;;;;11.72;100.00;101684.38;5268605;28;20035;-68
2022/05/22 04:25:52;;;;;;;13.63;6.78;;;;;;;11.91;100.00;101683.84;5268765;28;20056;-68
2022/05/22 04:28:25;;;;;;;10.60;5.97;;;;;;;11.81;100.00;101686.28;5267966;28;20029;-69
2022/05/22 04:30:56;;;;;;;10.63;6.22;;;;;;;11.83;100.00;101681.81;5268483;28;20032;-68
2022/05/22 04:33:27;;;;;;;8.57;5.57;;;;;;;11.93;100.00;101672.28;5269007;28;20037;-68
2022/05/22 04:35:59;;;;;;;11.27;5.88;;;;;;;12.02;100.00;101680.41;5267225;28;20098;-68
2022/05/22 04:38:31;;;;;;;7.13;5.57;;;;;;;12.10;100.00;101683.25;5268948;28;20029;-68
2022/05/22 04:41:02;;;;;;;9.38;5.75;;;;;;;12.04;100.00;101678.47;5267586;28;20089;-68
2022/05/22 04:43:34;;;;;;;11.48;6.32;;;;;;;12.11;100.00;101682.28;5266366;28;20024;-68
2022/05/22 04:46:07;;;;;;;8.80;5.72;;;;;;;12.12;100.00;101682.19;5267747;28;20094;-69
2022/05/22 04:48:38;;;;;;;9.73;6.40;;;;;;;12.16;100.00;101682.78;5267952;28;20037;-68
2022/05/22 04:51:09;;;;;;;9.15;6.43;;;;;;;12.21;100.00;101685.88;5267128;28;20063;-68
2022/05/22 04:53:41;;;;;;;8.70;7.00;;;;;;;12.21;100.00;101685.88;5268686;28;20033;-68
2022/05/22 04:56:12;;;;;;;11.52;7.38;;;;;;;12.22;100.00;101686.72;5265807;28;20111;-68
2022/05/22 04:58:45;;;;;;;10.52;6.93;;;;;;;12.30;100.00;101681.69;5266847;28;20504;-68
2022/05/22 05:01:18;;;;;;;13.70;8.07;;;;;;;12.37;100.00;101688.13;5267854;28;20136;-68
2022/05/22 05:03:50;;;;;;;15.95;9.27;;;;;;;12.36;100.00;101679.44;5269261;28;20024;-69
2022/05/22 05:06:21;;;;;;;10.80;8.68;;;;;;;12.33;100.00;101669.16;5268048;28;20035;-68
2022/05/22 05:08:52;;;;;;;11.23;8.70;;;;;;;12.41;100.00;101672.00;5268362;28;20017;-68
2022/05/22 05:11:24;;;;;;;16.88;10.02;;;;;;;12.49;100.00;101673.19;5268154;28;20043;-68
2022/05/22 05:13:55;;;;;;;16.15;9.98;;;;;;;12.47;100.00;101670.69;5264553;28;20035;-69
2022/05/22 05:16:28;;;;;;;13.90;9.73;;;;;;;12.61;100.00;101673.06;5264757;28;20355;-68
2022/05/22 05:19:00;;;;;;;;;;;;;;;13.11;100.00;101677.81;5267787;28;20036;-68
2022/05/22 05:21:31;;;;;;;16.30;10.07;;;;;;;12.73;100.00;101676.50;5266155;28;20336;-68
2022/05/22 05:24:03;;;;;;;21.52;10.80;;;;;;;12.78;100.00;101674.31;5266578;28;20393;-68
2022/05/22 05:26:35;;;;;;;13.40;9.43;;;;;;;12.90;100.00;101677.75;5266989;28;20164;-68
2022/05/22 05:29:07;;;;;;;13.90;9.63;;;;;;;12.92;100.00;101670.56;5266090;28;20037;-68
2022/05/22 05:31:38;;;;;;;10.02;8.77;;;;;;;13.04;100.00;101672.19;5265722;28;20039;-68
2022/05/22 05:34:09;;;;;;;14.27;9.63;;;;;;;13.15;100.00;101671.31;5266913;28;20043;-68
2022/05/22 05:36:41;;;;;;;12.48;8.88;;;;;;;13.21;100.00;101675.22;5267601;28;20032;-68
2022/05/22 05:39:13;;;;;;;14.43;9.40;;;;;;;13.20;100.00;101678.81;5265393;28;20401;-68
2022/05/22 05:41:44;;;;;;;17.27;9.50;;;;;;;13.28;100.00;101681.69;5266048;28;20116;-68
2022/05/22 05:44:15;;;;;;;15.40;9.23;;;;;;;13.32;100.00;101676.03;5265306;28;20055;-68
2022/05/22 05:46:47;;;;;;;15.52;9.98;;;;;;;13.44;100.00;101675.97;5265213;28;20025;-68
2022/05/22 05:49:18;;;;;;;16.98;9.80;;;;;;;13.46;100.00;101674.06;5265796;28;20036;-68
2022/05/22 05:51:49;;;;;;;14.88;9.75;;;;;;;13.55;100.00;101678.53;5265088;28;20036;-68
2022/05/22 05:54:20;;;;;;;16.02;10.02;;;;;;;13.66;100.00;101677.66;5266590;28;20024;-69
2022/05/22 05:56:52;;;;;;;12.82;9.20;;;;;;;13.72;100.00;101677.13;5265011;28;20029;-68
2022/05/22 05:59:27;;;;;;;15.85;10.00;;;;;;;13.72;100.00;101675.34;5265604;28;20025;-68
2022/05/22 06:01:58;;;;;;;13.27;9.38;;;;;;;13.84;100.00;101678.72;5266681;28;20494;-69
2022/05/22 06:04:29;;;;;;;13.85;9.68;;;;;;;13.99;100.00;101676.56;5262644;28;20032;-69
2022/05/22 06:07:02;;;;;;;17.50;10.38;;;;;;;14.09;100.00;101677.44;5267898;28;20062;-68
2022/05/22 06:09:35;;;;;;;15.32;10.10;;;;;;;14.20;100.00;101674.69;5266104;28;20044;-69
2022/05/22 06:12:06;;;;;;;13.90;9.18;;;;;;;14.29;100.00;101681.00;5265909;28;20501;-68
2022/05/22 06:14:38;;;;;;;15.50;9.13;;;;;;;14.42;100.00;101680.75;5264615;28;20028;-69
2022/05/22 06:17:09;;;;;;;13.57;9.75;;;;;;;14.44;100.00;101665.63;5267184;28;20033;-69
2022/05/22 06:19:57;;;;;;;14.25;9.05;;;;;;;14.53;100.00;101683.31;5264497;28;20055;-68
2022/05/22 06:22:29;;;;;;;14.30;9.52;;;;;;;14.66;100.00;101681.25;5263905;28;20044;-69
2022/05/22 06:25:06;;;;;;;15.98;10.98;;;;;;;14.77;100.00;101682.91;5266621;28;20028;-68
2022/05/22 06:27:38;;;;;;;13.60;9.75;;;;;;;14.80;100.00;101678.22;5265907;28;20035;-69
2022/05/22 06:30:13;;;;;;;16.77;9.50;;;;;;;14.84;100.00;101684.03;5265226;28;20397;-69
2022/05/22 06:32:44;;;;;;;16.35;9.40;;;;;;;14.93;100.00;101687.69;5263564;28;20052;-68
2022/05/22 06:35:16;;;;;;;13.73;9.55;;;;;;;14.95;100.00;101683.09;5266653;28;20446;-69
2022/05/22 06:37:47;;;;;;;10.20;9.20;;;;;;;15.03;100.00;101694.59;5266196;28;20028;-68
2022/05/22 06:40:19;;;;;;;16.65;9.43;;;;;;;15.18;100.00;101694.19;5262880;28;20063;-68
2022/05/22 06:42:50;;;;;;;14.07;10.07;;;;;;;15.13;100.00;101686.72;5265436;28;20025;-69
2022/05/22 06:45:23;;;;;;;15.88;9.43;;;;;;;15.17;100.00;101697.81;5265302;28;20025;-69
2022/05/22 06:47:54;;;;;;;18.30;9.63;;;;;;;15.27;100.00;101703.94;5264414;28;20025;-69
2022/05/22 06:50:30;;;;;;;14.57;9.40;;;;;;;15.39;100.00;101697.53;5265880;28;20053;-69
2022/05/22 06:53:02;;;;;;;16.58;9.23;;;;;;;15.39;100.00;101686.97;5265910;28;20524;-69
2022/05/22 06:55:33;;;;;;;13.75;9.43;;;;;;;15.50;100.00;101688.63;5262395;28;20047;-69
2022/05/22 06:58:04;;;;;;;17.15;9.75;;;;;;;15.65;100.00;101684.59;5263286;28;20504;-69
2022/05/22 07:00:35;;;;;;;17.10;9.27;;;;;;;15.83;100.00;101689.94;5260304;28;20474;-69
2022/05/22 07:03:07;;;;;;;15.07;9.00;;;;;;;15.93;100.00;101685.47;5267524;28;20486;-70
2022/05/22 07:05:38;;;;;;;11.07;8.52;;;;;;;16.11;100.00;101677.63;5263603;28;20036;-69
2022/05/22 07:08:10;;;;;;;13.52;9.13;;;;;;;16.41;100.00;101686.25;5264333;28;20387;-69
2022/05/22 07:13:31;;;;;;;11.93;7.97;;;;;;;16.55;100.00;101688.38;5263395;28;20033;-70
2022/05/22 07:16:05;;;;;;;11.98;8.00;;;;;;;16.73;100.00;101678.69;5265907;28;20020;-68
2022/05/22 07:18:36;;;;;;;13.27;7.72;;;;;;;16.87;100.00;101676.50;5263675;28;20077;-69
2022/05/22 07:21:08;;;;;;;17.20;8.70;;;;;;;16.84;99.28;101682.09;5266404;28;20385;-68
2022/05/22 07:23:39;;;;;;;10.52;7.40;;;;;;;17.10;100.00;101672.41;5263386;28;20449;-69
2022/05/22 07:26:12;;;;;;;13.55;8.27;;;;;;;17.26;97.54;101669.06;5264341;28;20104;-69
2022/05/22 07:28:43;;;;;;;10.38;7.60;;;;;;;17.55;96.24;101665.31;5264587;28;20028;-69
2022/05/22 07:31:16;;;;;;;13.05;7.90;;;;;;;17.54;92.53;101664.50;5262238;28;20059;-69
2022/05/22 07:33:47;;;;;;;11.48;6.60;;;;;;;17.65;90.34;101661.56;5266268;28;20221;-69
2022/05/22 07:36:20;;;;;;;11.02;6.40;;;;;;;17.88;87.97;101666.34;5263719;28;20103;-69
2022/05/22 07:38:51;;;;;;;12.27;6.55;;;;;;;18.00;89.17;101665.09;5261870;28;20028;-69
2022/05/22 07:41:23;;;;;;;11.25;6.63;;;;;;;18.17;86.49;101671.28;5262761;28;20508;-69
2022/05/22 07:43:54;;;;;;;13.80;6.25;;;;;;;18.26;82.14;101669.50;5263041;28;20025;-68
2022/05/22 07:46:26;;;;;;;10.20;6.22;;;;;;;18.53;84.03;101671.09;5264743;28;20111;-69
2022/05/22 07:48:57;;;;;;;12.80;6.03;;;;;;;18.58;84.65;101666.94;5266513;28;20039;-69
2022/05/22 07:51:29;;;;;;;9.55;5.65;;;;;;;18.70;83.19;101659.50;5263679;28;20037;-69
2022/05/22 07:54:00;;;;;;;12.10;5.63;;;;;;;18.65;83.11;101657.34;5264444;28;20028;-69
2022/05/22 07:56:31;;;;;;;13.75;6.47;;;;;;;18.71;78.86;101653.22;5262556;28;20107;-69
2022/05/22 07:59:03;;;;;;;9.52;4.18;;;;;;;18.69;74.52;101644.59;5267021;28;20025;-69
2022/05/22 08:01:34;;;;;;;12.27;4.20;;;;;;;18.63;66.84;101646.03;5261857;28;20086;-69
2022/05/22 08:04:06;;;;;;;11.20;3.00;;;;;;;18.69;67.14;101641.94;5269683;28;20029;-68
2022/05/22 08:06:37;;;;;;;7.50;3.07;;;;;;;18.89;68.99;101648.59;5269082;28;20079;-68
2022/05/22 08:09:08;;;;;;;6.40;3.40;;;;;;;19.13;68.84;101649.59;5264668;28;20440;-69
2022/05/22 08:11:40;;;;;;;9.07;3.75;;;;;;;19.20;72.16;101637.31;5261720;28;20478;-69
2022/05/22 08:14:11;;;;;;;8.23;3.70;;;;;;;19.42;68.28;101639.28;5267758;28;20036;-68
2022/05/22 08:16:43;;;;;;;9.23;3.60;;;;;;;19.56;66.35;101642.25;5263390;28;20066;-68
2022/05/22 08:19:15;;;;;;;6.80;2.63;;;;;;;19.76;62.38;101632.91;5267127;28;20036;-68
2022/05/22 08:21:46;;;;;;;6.27;2.90;;;;;;;19.98;63.67;101623.38;5265066;28;20025;-69
2022/05/22 08:24:18;;;;;;;6.87;2.70;;;;;;;20.08;65.71;101613.34;5271539;28;20052;-68
2022/05/22 08:26:49;;;;;;;7.20;2.70;;;;;;;20.20;62.92;101620.94;5266941;28;20079;-68
2022/05/22 08:29:21;;;;;;;8.87;2.80;;;;;;;20.32;61.25;101611.56;5260834;28;20035;-68
2022/05/22 08:31:52;;;;;;;8.33;3.30;;;;;;;20.17;57.27;101609.63;5267733;28;20029;-68
2022/05/22 08:34:23;;;;;;;7.00;3.00;;;;;;;20.20;57.25;101605.00;5266669;28;20036;-69
2022/05/22 08:36:55;;;;;;;6.17;2.17;;;;;;;20.39;58.58;101597.38;5266695;28;20024;-69
2022/05/22 08:39:27;;;;;;;8.47;2.10;;;;;;;20.24;57.21;101588.50;5267058;28;20138;-68
2022/05/22 08:41:59;;;;;;;7.65;2.33;;;;;;;20.38;57.91;101592.22;5267753;28;20406;-69
2022/05/22 08:44:33;;;;;;;4.60;2.00;;;;;;;20.47;57.72;101587.69;5266712;28;20037;-68
2022/05/22 08:47:26;;;;;;;5.32;2.40;;;;;;;20.77;59.41;101586.81;5266194;28;20493;-69
2022/05/22 08:50:02;;;;;;;7.10;3.17;;;;;;;20.61;59.67;101576.31;5268083;28;20035;-69
2022/05/22 08:52:43;;;;;;;5.10;2.78;;;;;;;20.54;60.45;101580.69;5266837;28;20032;-69
2022/05/22 08:55:25;;;;;;;9.43;4.32;;;;;;;20.33;60.66;101579.44;5265778;28;20123;-69
2022/05/22 09:01:12;;;;;;;9.20;4.40;;;;;;;20.37;61.40;101575.41;5264504;28;20483;-69
2022/05/22 09:03:58;;;;;;;8.02;3.60;;;;;;;20.49;62.20;101573.19;5267303;28;20075;-69
2022/05/22 09:06:35;;;;;;;8.27;3.72;;;;;;;20.65;61.36;101566.94;5267791;28;20122;-69
2022/05/22 09:09:06;;;;;;;10.68;4.07;;;;;;;20.69;56.37;101562.91;5265329;28;20075;-69
2022/05/22 09:11:56;;;;;;;7.10;4.17;;;;;;;21.04;61.98;101565.94;5268576;28;20032;-70
2022/05/22 09:14:40;;;;;;;11.70;3.80;;;;;;;21.37;59.61;101561.13;5265911;28;20029;-69
2022/05/22 09:17:24;;;;;;;9.50;4.10;;;;;;;21.57;60.64;101556.88;5266340;28;20857;-68
2022/05/22 09:20:13;;;;;;;8.75;4.03;;;;;;;21.74;62.42;101554.00;5263373;28;20040;-69
2022/05/22 09:23:12;;;;;;;8.20;3.90;;;;;;;21.95;58.70;101545.25;5267752;28;20061;-69
2022/05/22 09:25:56;;;;;;;8.20;3.95;;;;;;;22.01;51.93;101545.31;5267459;28;20028;-69
2022/05/22 09:28:55;;;;;;;7.47;4.20;;;;;;;22.11;53.87;101551.16;5266771;28;20424;-69
2022/05/22 09:31:47;;;;;;;8.45;3.80;;;;;;;22.34;54.79;101542.19;5266435;28;20513;-69
2022/05/22 09:34:56;;;;;;;9.10;4.15;;;;;;;22.44;53.85;101540.03;5265848;28;20033;-69
2022/05/22 09:37:58;;;;;;;8.40;4.32;;;;;;;22.44;55.89;101534.69;5266739;28;20033;-70
2022/05/22 09:40:50;;;;;;;8.52;3.90;;;;;;;22.47;52.09;101537.00;5267328;28;20590;-70
2022/05/22 09:43:47;;;;;;;8.83;4.20;;;;;;;22.30;52.85;101528.38;5267755;28;20611;-69
2022/05/22 09:46:42;;;;;;;8.40;3.65;;;;;;;22.26;51.69;101520.97;5263981;28;20029;-69
2022/05/22 09:49:41;;;;;;;9.00;3.70;;;;;;;22.51;52.22;101518.75;5265260;28;20024;-69
2022/05/22 09:52:26;;;;;;;6.95;3.95;;;;;;;22.27;48.45;101523.44;5265003;28;20037;-69
2022/05/22 09:55:25;;;;;;;10.02;3.72;;;;;;;22.82;49.54;101521.84;5264256;28;20032;-69
2022/05/22 09:58:15;;;;;;;6.95;3.20;;;;;;;23.16;47.58;101524.78;5264687;28;20490;-69
2022/05/22 10:01:12;;;;;;;8.82;4.10;;;;;;;22.85;46.39;101534.00;5265908;28;20113;-70
2022/05/22 10:04:20;;;;;;;8.02;4.00;;;;;;;23.03;45.84;101530.84;5265832;28;20037;-69
2022/05/22 10:07:07;;;;;;;7.15;4.05;;;;;;;22.92;45.95;101534.91;5266226;28;20114;-70
2022/05/22 10:10:16;;;;;;;8.25;4.30;;;;;;;23.18;46.60;101534.25;5266178;28;20063;-70
2022/05/22 10:13:07;;;;;;;7.57;3.97;;;;;;;23.26;46.34;101522.56;5268245;28;20028;-69
2022/05/22 10:15:43;;;;;;;10.57;3.90;;;;;;;23.19;44.88;101521.72;5263427;28;20032;-69
2022/05/22 10:18:36;;;;;;;8.38;3.83;;;;;;;23.55;45.79;101516.13;5263952;28;20029;-70
2022/05/22 10:21:25;;;;;;;6.40;3.58;;;;;;;23.48;45.04;101521.44;5267418;28;20028;-69
2022/05/22 10:24:04;;;;;;;9.25;4.43;;;;;;;23.27;45.96;101516.22;5266630;28;20047;-69
2022/05/22 10:26:49;;;;;;;8.02;4.30;;;;;;;23.26;45.35;101518.06;5264378;28;20048;-69
2022/05/22 10:29:45;;;;;;;9.15;3.75;;;;;;;23.59;47.34;101503.19;5266611;28;20370;-69
2022/05/22 10:32:20;;;;;;;8.77;3.92;;;;;;;23.60;46.03;101510.19;5245007;28;20480;-70
2022/05/22 10:35:03;;;;;;;9.15;4.22;;;;;;;23.64;42.55;101504.25;5264546;28;20036;-69
2022/05/22 10:37:45;;;;;;;8.25;4.05;;;;;;;23.43;45.63;101502.50;5266374;28;20562;-70
2022/05/22 10:40:21;;;;;;;10.60;3.83;;;;;;;23.34;44.41;101498.38;5265620;28;20052;-70
2022/05/22 10:42:56;;;;;;;10.73;3.70;;;;;;;23.48;45.36;101485.84;5262315;28;20036;-70
2022/05/22 10:45:34;;;;;;;10.38;4.40;;;;;;;23.51;44.58;101483.59;5264731;28;20059;-70
2022/05/22 10:48:13;;;;;;;10.35;3.60;;;;;;;23.70;47.20;101478.56;5264268;28;20496;-70
2022/05/22 10:51:06;;;;;;;12.05;3.85;;;;;;;24.08;46.81;101478.84;5266843;28;20021;-70
2022/05/22 10:53:39;;;;;;;;;;;;;;;24.74;44.30;101468.16;5266393;28;20028;-70
2022/05/22 10:56:14;;;;;;;7.78;4.28;;;;;;;23.87;42.27;101469.16;5265224;28;19908;-70
2022/05/22 10:59:01;;;;;;;8.50;4.20;;;;;;;23.73;43.24;101465.59;5265842;28;20108;-70
2022/05/22 11:01:41;;;;;;;9.55;3.92;;;;;;;23.70;43.80;101462.50;5265016;28;20131;-70
2022/05/22 11:04:17;;;;;;;8.55;3.38;;;;;;;23.92;44.31;101457.84;5265985;28;20125;-70
2022/05/22 11:06:58;;;;;;;8.32;4.15;;;;;;;24.03;44.42;101459.91;5265226;28;20021;-70
2022/05/22 11:09:32;;;;;;;9.32;4.38;;;;;;;24.01;44.36;101461.94;5265584;28;20032;-70
2022/05/22 11:12:05;;;;;;;10.02;4.80;;;;;;;23.96;39.92;101456.41;5264242;28;20033;-70
2022/05/22 11:14:37;;;;;;;8.80;4.78;;;;;;;23.69;41.22;101469.72;5271424;28;20024;-70
2022/05/22 11:17:11;;;;;;;10.55;4.47;;;;;;;23.59;42.85;101455.84;5264313;28;20467;-70
2022/05/22 11:19:44;;;;;;;8.15;4.13;;;;;;;23.42;41.21;101447.38;5266442;28;20066;-70
2022/05/22 11:22:21;;;;;;;7.55;4.20;;;;;;;23.46;42.38;101447.81;5265593;28;20118;-69
2022/05/22 11:25:16;;;;;;;7.53;3.90;;;;;;;23.55;44.36;101441.25;5265678;28;20024;-70
2022/05/22 11:28:12;;;;;;;10.60;3.92;;;;;;;23.91;44.08;101430.25;5269900;28;20039;-70
2022/05/22 11:30:54;;;;;;;7.35;3.78;;;;;;;24.14;42.52;101415.66;5267093;28;20551;-70
2022/05/22 11:33:52;;;;;;;7.43;3.70;;;;;;;24.27;42.77;101405.75;5266474;28;20051;-69
2022/05/22 11:36:30;;;;;;;12.63;4.45;;;;;;;24.31;41.85;101400.78;5279960;28;20029;-70
2022/05/22 11:39:15;;;;;;;9.25;3.70;;;;;;;24.59;39.17;101395.25;5269892;28;20040;-70
2022/05/22 11:41:53;;;;;;;7.18;3.88;;;;;;;23.97;38.07;101399.16;5270939;28;20055;-70
2022/05/22 11:44:40;;;;;;;8.38;3.47;;;;;;;24.29;39.39;101397.53;5270190;28;20067;-70
2022/05/22 11:47:36;;;;;;;8.20;3.38;;;;;;;24.81;41.03;101400.31;5268976;28;20554;-70
2022/05/22 11:50:37;;;;;;;10.10;4.50;;;;;;;24.74;40.33;101395.81;5266732;28;20559;-69
2022/05/22 11:53:24;;;;;;;8.50;4.15;;;;;;;24.85;38.72;101386.31;5268061;28;20028;-70
2022/05/22 11:55:58;;;;;;;8.80;3.95;;;;;;;24.59;36.74;101381.03;5268835;28;20036;-70
2022/05/22 11:58:52;;;;;;;6.68;3.75;;;;;;;25.30;38.77;101374.78;5268997;28;20386;-70
2022/05/22 12:01:36;;;;;;;9.00;4.15;;;;;;;25.17;37.96;101373.00;5268916;28;20098;-70
2022/05/22 12:04:43;;;;;;;8.88;3.92;;;;;;;25.36;38.65;101364.03;5266988;28;20420;-71
2022/05/22 12:07:38;;;;;;;9.48;4.55;;;;;;;25.29;39.19;101357.88;5267399;28;20475;-70